sensor_id;sensor_type;location;lat;lon;timestamp;pressure;altitude;pressure_sealevel;temperature;humidity
6435;BME280;3250;42.694;23.278;2023-04-28T00:01:21;95053.00;;;7.50;58.58
6435;BME280;3250;42.694;23.278;2023-04-28T00:03:47;95062.50;;;7.51;58.99
6435;BME280;3250;42.694;23.278;2023-04-28T00:06:12;95049.94;;;7.47;59.57
6435;BME280;3250;42.694;23.278;2023-04-28T00:08:40;95060.84;;;7.29;59.38
6435;BME280;3250;42.694;23.278;2023-04-28T00:11:09;95061.41;;;7.25;59.97
6435;BME280;3250;42.694;23.278;2023-04-28T00:13:35;95062.34;;;7.17;59.53
6435;BME280;3250;42.694;23.278;2023-04-28T00:16:00;95061.84;;;7.28;60.10
6435;BME280;3250;42.694;23.278;2023-04-28T00:18:26;95059.84;;;7.30;59.14
6435;BME280;3250;42.694;23.278;2023-04-28T00:20:51;95062.34;;;7.02;59.55
6435;BME280;3250;42.694;23.278;2023-04-28T00:23:17;95061.75;;;7.00;60.77
6435;BME280;3250;42.694;23.278;2023-04-28T00:25:42;95066.59;;;7.03;60.33
6435;BME280;3250;42.694;23.278;2023-04-28T00:28:07;95054.19;;;6.91;60.71
6435;BME280;3250;42.694;23.278;2023-04-28T00:30:33;95064.66;;;6.91;61.05
6435;BME280;3250;42.694;23.278;2023-04-28T00:32:58;95057.13;;;7.02;60.40
6435;BME280;3250;42.694;23.278;2023-04-28T00:35:23;95064.03;;;7.10;60.91
6435;BME280;3250;42.694;23.278;2023-04-28T00:37:49;95066.75;;;7.16;61.24
6435;BME280;3250;42.694;23.278;2023-04-28T00:40:14;95070.19;;;7.17;60.88
6435;BME280;3250;42.694;23.278;2023-04-28T00:42:40;95074.41;;;7.18;59.87
6435;BME280;3250;42.694;23.278;2023-04-28T00:45:05;95078.03;;;7.17;59.83
6435;BME280;3250;42.694;23.278;2023-04-28T00:47:32;95066.34;;;6.98;61.51
6435;BME280;3250;42.694;23.278;2023-04-28T00:49:59;95080.59;;;6.66;61.18
6435;BME280;3250;42.694;23.278;2023-04-28T00:52:26;95074.22;;;6.39;62.10
6435;BME280;3250;42.694;23.278;2023-04-28T00:54:52;95075.16;;;6.09;62.97
6435;BME280;3250;42.694;23.278;2023-04-28T00:57:18;95081.13;;;6.03;63.67
6435;BME280;3250;42.694;23.278;2023-04-28T00:59:43;95080.06;;;6.12;63.57
6435;BME280;3250;42.694;23.278;2023-04-28T01:02:09;95084.56;;;6.18;63.05
6435;BME280;3250;42.694;23.278;2023-04-28T01:04:41;95086.94;;;6.42;62.68
6435;BME280;3250;42.694;23.278;2023-04-28T01:07:07;95084.06;;;6.37;62.56
6435;BME280;3250;42.694;23.278;2023-04-28T01:09:33;95089.91;;;6.39;62.67
6435;BME280;3250;42.694;23.278;2023-04-28T01:11:58;95085.75;;;6.45;62.28
6435;BME280;3250;42.694;23.278;2023-04-28T01:14:24;95087.47;;;6.38;62.85
6435;BME280;3250;42.694;23.278;2023-04-28T01:16:49;95088.28;;;6.38;62.78
6435;BME280;3250;42.694;23.278;2023-04-28T01:19:20;95088.97;;;6.18;63.23
6435;BME280;3250;42.694;23.278;2023-04-28T01:21:49;95089.84;;;5.95;64.30
6435;BME280;3250;42.694;23.278;2023-04-28T01:24:15;95094.41;;;5.93;64.29
6435;BME280;3250;42.694;23.278;2023-04-28T01:26:41;95094.34;;;6.01;64.33
6435;BME280;3250;42.694;23.278;2023-04-28T01:29:06;95088.47;;;5.99;64.79
6435;BME280;3250;42.694;23.278;2023-04-28T01:31:32;95080.75;;;6.06;64.19
6435;BME280;3250;42.694;23.278;2023-04-28T01:33:57;95091.59;;;6.18;63.93
6435;BME280;3250;42.694;23.278;2023-04-28T01:36:24;95088.34;;;6.16;63.21
6435;BME280;3250;42.694;23.278;2023-04-28T01:38:51;95095.09;;;6.25;63.33
6435;BME280;3250;42.694;23.278;2023-04-28T01:41:17;95080.31;;;6.17;62.94
6435;BME280;3250;42.694;23.278;2023-04-28T01:43:42;95089.31;;;6.15;62.38
6435;BME280;3250;42.694;23.278;2023-04-28T01:46:11;95099.69;;;6.08;62.60
6435;BME280;3250;42.694;23.278;2023-04-28T01:48:36;95078.44;;;5.88;62.58
6435;BME280;3250;42.694;23.278;2023-04-28T01:51:01;95087.75;;;5.91;63.93
6435;BME280;3250;42.694;23.278;2023-04-28T01:53:27;95084.25;;;5.76;64.57
6435;BME280;3250;42.694;23.278;2023-04-28T01:55:52;95093.81;;;6.06;64.44
6435;BME280;3250;42.694;23.278;2023-04-28T01:58:18;95095.84;;;6.19;63.13
6435;BME280;3250;42.694;23.278;2023-04-28T02:00:44;95087.59;;;6.07;62.89
6435;BME280;3250;42.694;23.278;2023-04-28T02:03:10;95096.72;;;5.88;63.13
6435;BME280;3250;42.694;23.278;2023-04-28T02:05:36;95096.59;;;5.82;63.75
6435;BME280;3250;42.694;23.278;2023-04-28T02:08:01;95097.41;;;5.82;63.90
6435;BME280;3250;42.694;23.278;2023-04-28T02:10:27;95100.41;;;5.79;63.78
6435;BME280;3250;42.694;23.278;2023-04-28T02:12:53;95096.31;;;5.77;64.41
6435;BME280;3250;42.694;23.278;2023-04-28T02:15:18;95095.22;;;5.71;64.67
6435;BME280;3250;42.694;23.278;2023-04-28T02:17:43;95095.78;;;5.81;64.50
6435;BME280;3250;42.694;23.278;2023-04-28T02:20:09;95097.66;;;5.73;64.87
6435;BME280;3250;42.694;23.278;2023-04-28T02:22:35;95101.44;;;5.70;64.89
6435;BME280;3250;42.694;23.278;2023-04-28T02:25:00;95088.41;;;5.39;65.44
6435;BME280;3250;42.694;23.278;2023-04-28T02:27:26;95104.72;;;5.41;65.85
6435;BME280;3250;42.694;23.278;2023-04-28T02:29:51;95113.16;;;5.51;65.82
6435;BME280;3250;42.694;23.278;2023-04-28T02:32:17;95082.50;;;5.45;65.50
6435;BME280;3250;42.694;23.278;2023-04-28T02:34:42;95093.47;;;5.63;66.05
6435;BME280;3250;42.694;23.278;2023-04-28T02:37:08;95112.16;;;5.75;65.63
6435;BME280;3250;42.694;23.278;2023-04-28T02:39:33;95116.19;;;5.86;65.78
6435;BME280;3250;42.694;23.278;2023-04-28T02:41:59;95109.44;;;5.91;64.88
6435;BME280;3250;42.694;23.278;2023-04-28T02:44:24;95112.88;;;5.92;65.05
6435;BME280;3250;42.694;23.278;2023-04-28T02:46:49;95123.81;;;5.95;65.32
6435;BME280;3250;42.694;23.278;2023-04-28T02:49:15;95119.72;;;5.93;64.23
6435;BME280;3250;42.694;23.278;2023-04-28T02:51:40;95120.66;;;5.77;64.48
6435;BME280;3250;42.694;23.278;2023-04-28T02:54:06;95116.47;;;5.68;65.35
6435;BME280;3250;42.694;23.278;2023-04-28T02:56:32;95121.72;;;5.37;66.07
6435;BME280;3250;42.694;23.278;2023-04-28T02:58:58;95104.47;;;4.97;67.03
6435;BME280;3250;42.694;23.278;2023-04-28T03:01:23;95126.28;;;5.04;67.58
6435;BME280;3250;42.694;23.278;2023-04-28T03:03:49;95134.41;;;5.17;67.40
6435;BME280;3250;42.694;23.278;2023-04-28T03:06:14;95129.78;;;5.27;67.80
6435;BME280;3250;42.694;23.278;2023-04-28T03:08:40;95131.13;;;5.46;66.18
6435;BME280;3250;42.694;23.278;2023-04-28T03:11:05;95135.78;;;5.59;65.91
6435;BME280;3250;42.694;23.278;2023-04-28T03:13:31;95138.50;;;5.65;66.10
6435;BME280;3250;42.694;23.278;2023-04-28T03:15:56;95140.78;;;5.68;65.60
6435;BME280;3250;42.694;23.278;2023-04-28T03:18:22;95121.91;;;5.58;65.88
6435;BME280;3250;42.694;23.278;2023-04-28T03:20:48;95138.97;;;5.69;66.03
6435;BME280;3250;42.694;23.278;2023-04-28T03:23:13;95116.69;;;5.36;65.46
6435;BME280;3250;42.694;23.278;2023-04-28T03:25:39;95151.72;;;5.64;66.74
6435;BME280;3250;42.694;23.278;2023-04-28T03:28:04;95142.75;;;5.66;66.57
6435;BME280;3250;42.694;23.278;2023-04-28T03:30:30;95145.91;;;5.62;65.95
6435;BME280;3250;42.694;23.278;2023-04-28T03:32:55;95162.53;;;5.61;66.99
6435;BME280;3250;42.694;23.278;2023-04-28T03:35:21;95166.59;;;5.63;65.93
6435;BME280;3250;42.694;23.278;2023-04-28T03:37:46;95133.94;;;5.37;64.32
6435;BME280;3250;42.694;23.278;2023-04-28T03:40:12;95176.69;;;5.66;65.02
6435;BME280;3250;42.694;23.278;2023-04-28T03:42:37;95177.25;;;5.85;64.75
6435;BME280;3250;42.694;23.278;2023-04-28T03:45:03;95181.63;;;5.92;63.48
6435;BME280;3250;42.694;23.278;2023-04-28T03:47:28;95183.41;;;5.92;63.08
6435;BME280;3250;42.694;23.278;2023-04-28T03:49:54;95179.75;;;6.01;63.61
6435;BME280;3250;42.694;23.278;2023-04-28T03:52:19;95190.44;;;6.14;62.98
6435;BME280;3250;42.694;23.278;2023-04-28T03:54:45;95191.81;;;6.25;62.32
6435;BME280;3250;42.694;23.278;2023-04-28T03:57:10;95169.81;;;6.19;62.55
6435;BME280;3250;42.694;23.278;2023-04-28T03:59:36;95191.44;;;6.51;62.36
6435;BME280;3250;42.694;23.278;2023-04-28T04:02:02;95193.91;;;6.67;62.46
6435;BME280;3250;42.694;23.278;2023-04-28T04:04:27;95201.69;;;6.90;60.74
6435;BME280;3250;42.694;23.278;2023-04-28T04:06:53;95201.97;;;7.09;60.26
6435;BME280;3250;42.694;23.278;2023-04-28T04:09:18;95205.22;;;7.26;59.09
6435;BME280;3250;42.694;23.278;2023-04-28T04:11:44;95201.84;;;7.47;58.42
6435;BME280;3250;42.694;23.278;2023-04-28T04:14:09;95202.22;;;7.80;57.18
6435;BME280;3250;42.694;23.278;2023-04-28T04:16:35;95206.13;;;8.05;56.67
6435;BME280;3250;42.694;23.278;2023-04-28T04:19:01;95218.41;;;8.41;55.73
6435;BME280;3250;42.694;23.278;2023-04-28T04:21:26;95215.69;;;8.77;54.53
6435;BME280;3250;42.694;23.278;2023-04-28T04:23:52;95200.09;;;9.03;52.89
6435;BME280;3250;42.694;23.278;2023-04-28T04:26:17;95223.41;;;9.54;53.87
6435;BME280;3250;42.694;23.278;2023-04-28T04:28:43;95226.88;;;10.02;52.70
6435;BME280;3250;42.694;23.278;2023-04-28T04:31:08;95220.09;;;10.47;51.19
6435;BME280;3250;42.694;23.278;2023-04-28T04:33:33;95223.13;;;11.03;49.64
6435;BME280;3250;42.694;23.278;2023-04-28T04:35:59;95199.34;;;11.43;47.44
6435;BME280;3250;42.694;23.278;2023-04-28T04:38:25;95211.53;;;11.95;46.69
6435;BME280;3250;42.694;23.278;2023-04-28T04:40:51;95227.03;;;12.61;45.22
6435;BME280;3250;42.694;23.278;2023-04-28T04:43:16;95229.63;;;13.17;44.44
6435;BME280;3250;42.694;23.278;2023-04-28T04:45:41;95230.72;;;13.71;43.30
6435;BME280;3250;42.694;23.278;2023-04-28T04:48:07;95234.97;;;14.38;41.76
6435;BME280;3250;42.694;23.278;2023-04-28T04:50:33;95238.84;;;15.07;40.06
6435;BME280;3250;42.694;23.278;2023-04-28T04:52:58;95244.78;;;15.79;39.14
6435;BME280;3250;42.694;23.278;2023-04-28T04:55:24;95249.41;;;16.52;36.75
6435;BME280;3250;42.694;23.278;2023-04-28T04:57:49;95249.53;;;17.19;35.35
6435;BME280;3250;42.694;23.278;2023-04-28T05:00:15;95255.03;;;17.84;34.08
6435;BME280;3250;42.694;23.278;2023-04-28T05:02:41;95253.59;;;18.59;34.07
6435;BME280;3250;42.694;23.278;2023-04-28T05:05:06;95262.72;;;19.21;32.09
6435;BME280;3250;42.694;23.278;2023-04-28T05:07:33;95228.44;;;19.77;30.35
6435;BME280;3250;42.694;23.278;2023-04-28T05:09:59;95261.94;;;20.47;29.27
6435;BME280;3250;42.694;23.278;2023-04-28T05:12:24;95260.44;;;21.02;28.56
6435;BME280;3250;42.694;23.278;2023-04-28T05:14:50;95256.22;;;21.41;27.37
6435;BME280;3250;42.694;23.278;2023-04-28T05:17:15;95265.00;;;21.82;26.88
6435;BME280;3250;42.694;23.278;2023-04-28T05:19:41;95257.69;;;22.24;26.40
6435;BME280;3250;42.694;23.278;2023-04-28T05:22:06;95266.81;;;22.28;27.13
6435;BME280;3250;42.694;23.278;2023-04-28T05:24:32;95254.25;;;22.08;26.18
6435;BME280;3250;42.694;23.278;2023-04-28T05:26:58;95265.56;;;21.29;30.73
6435;BME280;3250;42.694;23.278;2023-04-28T05:29:23;95262.94;;;20.36;32.16
6435;BME280;3250;42.694;23.278;2023-04-28T05:31:49;95262.50;;;18.96;31.00
6435;BME280;3250;42.694;23.278;2023-04-28T05:34:15;95236.91;;;17.48;33.17
6435;BME280;3250;42.694;23.278;2023-04-28T05:36:40;95256.44;;;16.18;36.17
6435;BME280;3250;42.694;23.278;2023-04-28T05:39:06;95249.03;;;15.68;39.10
6435;BME280;3250;42.694;23.278;2023-04-28T05:41:32;95244.19;;;15.42;38.99
6435;BME280;3250;42.694;23.278;2023-04-28T05:43:58;95245.69;;;15.38;40.31
6435;BME280;3250;42.694;23.278;2023-04-28T05:46:23;95253.66;;;15.38;38.94
6435;BME280;3250;42.694;23.278;2023-04-28T05:48:49;95251.09;;;15.31;40.46
6435;BME280;3250;42.694;23.278;2023-04-28T05:51:14;95209.38;;;15.03;39.56
6435;BME280;3250;42.694;23.278;2023-04-28T05:53:39;95253.19;;;15.18;39.45
6435;BME280;3250;42.694;23.278;2023-04-28T05:56:06;95247.16;;;15.22;38.40
6435;BME280;3250;42.694;23.278;2023-04-28T05:58:31;95231.72;;;14.96;38.54
6435;BME280;3250;42.694;23.278;2023-04-28T06:00:57;95256.88;;;15.17;39.74
6435;BME280;3250;42.694;23.278;2023-04-28T06:03:23;95257.47;;;15.30;39.30
6435;BME280;3250;42.694;23.278;2023-04-28T06:05:48;95240.75;;;15.30;38.45
6435;BME280;3250;42.694;23.278;2023-04-28T06:08:14;95259.53;;;15.52;39.28
6435;BME280;3250;42.694;23.278;2023-04-28T06:10:39;95238.69;;;15.55;39.29
6435;BME280;3250;42.694;23.278;2023-04-28T06:13:05;95247.56;;;15.72;38.70
6435;BME280;3250;42.694;23.278;2023-04-28T06:15:31;95260.44;;;15.10;37.85
6435;BME280;3250;42.694;23.278;2023-04-28T06:17:57;95252.59;;;15.27;39.44
6435;BME280;3250;42.694;23.278;2023-04-28T06:20:23;95257.81;;;15.45;38.42
6435;BME280;3250;42.694;23.278;2023-04-28T06:22:49;95243.81;;;15.85;37.80
6435;BME280;3250;42.694;23.278;2023-04-28T06:25:14;95249.28;;;16.18;36.67
6435;BME280;3250;42.694;23.278;2023-04-28T06:27:40;95236.28;;;16.17;36.65
6435;BME280;3250;42.694;23.278;2023-04-28T06:30:06;95251.69;;;16.60;37.57
6435;BME280;3250;42.694;23.278;2023-04-28T06:32:31;95264.09;;;16.83;36.84
6435;BME280;3250;42.694;23.278;2023-04-28T06:34:57;95255.97;;;16.89;35.44
6435;BME280;3250;42.694;23.278;2023-04-28T06:37:23;95258.97;;;17.10;35.79
6435;BME280;3250;42.694;23.278;2023-04-28T06:39:48;95260.59;;;17.27;35.49
6435;BME280;3250;42.694;23.278;2023-04-28T06:42:14;95257.53;;;17.35;35.40
6435;BME280;3250;42.694;23.278;2023-04-28T06:44:42;95244.84;;;17.26;33.86
6435;BME280;3250;42.694;23.278;2023-04-28T06:47:08;95261.56;;;17.38;34.65
6435;BME280;3250;42.694;23.278;2023-04-28T06:49:33;95256.28;;;17.60;34.00
6435;BME280;3250;42.694;23.278;2023-04-28T06:51:58;95256.38;;;17.48;35.79
6435;BME280;3250;42.694;23.278;2023-04-28T06:54:24;95265.25;;;17.70;35.38
6435;BME280;3250;42.694;23.278;2023-04-28T06:56:49;95254.88;;;17.91;33.78
6435;BME280;3250;42.694;23.278;2023-04-28T06:59:15;95258.41;;;17.96;34.06
6435;BME280;3250;42.694;23.278;2023-04-28T07:01:40;95252.66;;;18.26;33.47
6435;BME280;3250;42.694;23.278;2023-04-28T07:04:05;95230.22;;;18.22;32.24
6435;BME280;3250;42.694;23.278;2023-04-28T07:06:31;95221.72;;;18.25;32.48
6435;BME280;3250;42.694;23.278;2023-04-28T07:08:56;95252.78;;;18.15;30.60
6435;BME280;3250;42.694;23.278;2023-04-28T07:11:22;95230.09;;;18.12;32.75
6435;BME280;3250;42.694;23.278;2023-04-28T07:13:47;95222.22;;;18.22;32.19
6435;BME280;3250;42.694;23.278;2023-04-28T07:16:18;95249.13;;;18.64;33.00
6435;BME280;3250;42.694;23.278;2023-04-28T07:18:43;95237.16;;;18.67;31.61
6435;BME280;3250;42.694;23.278;2023-04-28T07:21:09;95204.78;;;18.58;30.91
6435;BME280;3250;42.694;23.278;2023-04-28T07:23:35;95240.00;;;18.87;30.27
6435;BME280;3250;42.694;23.278;2023-04-28T07:26:03;95236.81;;;18.90;30.80
6435;BME280;3250;42.694;23.278;2023-04-28T07:28:28;95247.94;;;19.09;30.98
6435;BME280;3250;42.694;23.278;2023-04-28T07:30:53;95239.81;;;19.31;30.99
6435;BME280;3250;42.694;23.278;2023-04-28T07:33:19;95241.75;;;19.35;30.39
6435;BME280;3250;42.694;23.278;2023-04-28T07:35:45;95252.75;;;19.44;30.74
6435;BME280;3250;42.694;23.278;2023-04-28T07:38:10;95245.44;;;19.61;30.08
6435;BME280;3250;42.694;23.278;2023-04-28T07:40:36;95242.19;;;19.54;29.82
6435;BME280;3250;42.694;23.278;2023-04-28T07:43:01;95234.41;;;19.52;29.51
6435;BME280;3250;42.694;23.278;2023-04-28T07:45:27;95239.56;;;19.64;30.31
6435;BME280;3250;42.694;23.278;2023-04-28T07:47:53;95240.16;;;19.71;29.09
6435;BME280;3250;42.694;23.278;2023-04-28T07:50:18;95241.94;;;19.29;29.09
6435;BME280;3250;42.694;23.278;2023-04-28T07:52:44;95241.44;;;19.32;28.69
6435;BME280;3250;42.694;23.278;2023-04-28T07:55:09;95233.75;;;19.40;30.09
6435;BME280;3250;42.694;23.278;2023-04-28T07:57:35;95211.25;;;19.26;29.36
6435;BME280;3250;42.694;23.278;2023-04-28T08:00:01;95228.34;;;19.62;29.14
6435;BME280;3250;42.694;23.278;2023-04-28T08:02:26;95231.50;;;19.54;29.72
6435;BME280;3250;42.694;23.278;2023-04-28T08:04:52;95235.56;;;19.62;30.40
6435;BME280;3250;42.694;23.278;2023-04-28T08:07:17;95225.38;;;19.64;29.99
6435;BME280;3250;42.694;23.278;2023-04-28T08:09:43;95238.63;;;19.85;30.53
6435;BME280;3250;42.694;23.278;2023-04-28T08:12:11;95237.03;;;19.89;28.13
6435;BME280;3250;42.694;23.278;2023-04-28T08:14:37;95239.81;;;20.05;27.90
6435;BME280;3250;42.694;23.278;2023-04-28T08:17:04;95242.47;;;20.10;27.43
6435;BME280;3250;42.694;23.278;2023-04-28T08:19:29;95234.22;;;19.64;26.90
6435;BME280;3250;42.694;23.278;2023-04-28T08:21:55;95232.16;;;19.39;28.84
6435;BME280;3250;42.694;23.278;2023-04-28T08:24:20;95239.34;;;19.39;29.85
6435;BME280;3250;42.694;23.278;2023-04-28T08:26:45;95209.91;;;19.29;30.46
6435;BME280;3250;42.694;23.278;2023-04-28T08:29:11;95243.13;;;19.43;27.34
6435;BME280;3250;42.694;23.278;2023-04-28T08:31:37;95233.50;;;19.42;30.37
6435;BME280;3250;42.694;23.278;2023-04-28T08:34:02;95225.25;;;19.43;29.53
6435;BME280;3250;42.694;23.278;2023-04-28T08:36:28;95226.06;;;19.44;29.96
6435;BME280;3250;42.694;23.278;2023-04-28T08:38:56;95229.03;;;19.47;27.59
6435;BME280;3250;42.694;23.278;2023-04-28T08:41:24;95199.59;;;19.05;29.19
6435;BME280;3250;42.694;23.278;2023-04-28T08:43:52;95230.53;;;19.38;29.61
6435;BME280;3250;42.694;23.278;2023-04-28T08:46:20;95226.53;;;19.36;28.40
6435;BME280;3250;42.694;23.278;2023-04-28T08:48:48;95223.25;;;19.29;30.41
6435;BME280;3250;42.694;23.278;2023-04-28T08:51:16;95195.22;;;18.94;29.60
6435;BME280;3250;42.694;23.278;2023-04-28T08:53:52;95219.78;;;18.96;31.64
6435;BME280;3250;42.694;23.278;2023-04-28T08:56:20;95215.81;;;18.99;31.35
6435;BME280;3250;42.694;23.278;2023-04-28T08:58:46;95218.38;;;19.20;30.29
6435;BME280;3250;42.694;23.278;2023-04-28T09:01:13;95209.19;;;19.01;31.53
6435;BME280;3250;42.694;23.278;2023-04-28T09:03:38;95220.09;;;19.32;31.70
6435;BME280;3250;42.694;23.278;2023-04-28T09:06:04;95211.00;;;19.28;29.87
6435;BME280;3250;42.694;23.278;2023-04-28T09:08:29;95216.03;;;19.24;29.54
6435;BME280;3250;42.694;23.278;2023-04-28T09:11:08;95196.44;;;19.13;30.39
6435;BME280;3250;42.694;23.278;2023-04-28T09:13:35;95200.34;;;19.38;30.19
6435;BME280;3250;42.694;23.278;2023-04-28T09:16:02;95201.66;;;18.93;27.91
6435;BME280;3250;42.694;23.278;2023-04-28T09:18:28;95203.47;;;18.61;28.94
6435;BME280;3250;42.694;23.278;2023-04-28T09:23:29;95199.22;;;18.92;30.22
6435;BME280;3250;42.694;23.278;2023-04-28T09:25:55;95195.78;;;18.96;31.47
6435;BME280;3250;42.694;23.278;2023-04-28T09:28:21;95173.84;;;18.89;29.72
6435;BME280;3250;42.694;23.278;2023-04-28T09:30:47;95185.91;;;18.97;30.57
6435;BME280;3250;42.694;23.278;2023-04-28T09:33:13;95184.34;;;19.01;31.40
6435;BME280;3250;42.694;23.278;2023-04-28T09:35:41;95177.19;;;19.06;29.90
6435;BME280;3250;42.694;23.278;2023-04-28T09:38:07;95172.53;;;18.92;31.36
6435;BME280;3250;42.694;23.278;2023-04-28T09:40:32;95174.91;;;18.88;31.78
6435;BME280;3250;42.694;23.278;2023-04-28T09:42:58;95172.75;;;18.85;30.81
6435;BME280;3250;42.694;23.278;2023-04-28T09:45:23;95170.09;;;18.85;32.53
6435;BME280;3250;42.694;23.278;2023-04-28T09:47:50;95171.88;;;18.74;32.98
6435;BME280;3250;42.694;23.278;2023-04-28T09:50:16;95142.31;;;18.54;31.00
6435;BME280;3250;42.694;23.278;2023-04-28T09:52:44;95127.44;;;18.31;29.10
6435;BME280;3250;42.694;23.278;2023-04-28T09:55:11;95157.84;;;18.35;31.25
6435;BME280;3250;42.694;23.278;2023-04-28T09:57:38;95161.19;;;18.21;31.87
6435;BME280;3250;42.694;23.278;2023-04-28T10:00:05;95161.22;;;18.26;33.19
6435;BME280;3250;42.694;23.278;2023-04-28T10:02:35;95134.72;;;18.14;32.04
6435;BME280;3250;42.694;23.278;2023-04-28T10:05:01;95155.72;;;18.32;31.47
6435;BME280;3250;42.694;23.278;2023-04-28T10:07:32;95141.41;;;17.90;28.46
6435;BME280;3250;42.694;23.278;2023-04-28T10:10:00;95143.41;;;17.83;30.99
6435;BME280;3250;42.694;23.278;2023-04-28T10:12:26;95144.56;;;17.87;32.02
6435;BME280;3250;42.694;23.278;2023-04-28T10:14:52;95130.78;;;17.73;31.73
6435;BME280;3250;42.694;23.278;2023-04-28T10:17:21;95124.78;;;17.61;32.15
6435;BME280;3250;42.694;23.278;2023-04-28T10:19:51;95137.34;;;17.65;32.74
6435;BME280;3250;42.694;23.278;2023-04-28T10:27:42;95128.03;;;17.63;33.71
6435;BME280;3250;42.694;23.278;2023-04-28T10:32:35;95104.00;;;17.41;32.03
6435;BME280;3250;42.694;23.278;2023-04-28T10:43:11;95104.19;;;17.56;31.15
6435;BME280;3250;42.694;23.278;2023-04-28T10:58:48;95069.13;;;17.38;33.96
6435;BME280;3250;42.694;23.278;2023-04-28T11:08:51;95082.72;;;17.41;33.31
6435;BME280;3250;42.694;23.278;2023-04-28T11:11:19;95068.22;;;17.32;32.58
6435;BME280;3250;42.694;23.278;2023-04-28T11:13:46;95065.94;;;17.41;30.06
6435;BME280;3250;42.694;23.278;2023-04-28T11:16:17;95056.78;;;17.31;29.39
6435;BME280;3250;42.694;23.278;2023-04-28T11:18:57;95072.69;;;17.48;31.17
6435;BME280;3250;42.694;23.278;2023-04-28T11:21:24;95075.47;;;17.58;32.02
6435;BME280;3250;42.694;23.278;2023-04-28T11:23:50;95063.78;;;17.59;32.50
6435;BME280;3250;42.694;23.278;2023-04-28T11:26:17;95071.53;;;17.61;31.61
6435;BME280;3250;42.694;23.278;2023-04-28T11:28:50;95062.16;;;17.58;31.10
6435;BME280;3250;42.694;23.278;2023-04-28T11:31:17;95059.69;;;17.52;32.09
6435;BME280;3250;42.694;23.278;2023-04-28T11:33:50;95045.22;;;17.43;32.53
6435;BME280;3250;42.694;23.278;2023-04-28T11:36:28;95057.53;;;17.49;33.07
6435;BME280;3250;42.694;23.278;2023-04-28T11:38:55;95064.59;;;17.60;32.35
6435;BME280;3250;42.694;23.278;2023-04-28T11:41:21;95054.72;;;17.60;30.62
6435;BME280;3250;42.694;23.278;2023-04-28T11:43:47;95046.75;;;17.60;30.78
6435;BME280;3250;42.694;23.278;2023-04-28T11:46:20;95048.16;;;17.63;32.40
6435;BME280;3250;42.694;23.278;2023-04-28T11:48:46;95048.50;;;17.71;31.55
6435;BME280;3250;42.694;23.278;2023-04-28T11:53:53;95042.88;;;17.46;30.27
6435;BME280;3250;42.694;23.278;2023-04-28T11:56:19;95043.34;;;17.43;29.87
6435;BME280;3250;42.694;23.278;2023-04-28T11:58:44;95040.75;;;17.26;30.88
6435;BME280;3250;42.694;23.278;2023-04-28T12:01:11;95033.59;;;17.27;32.21
6435;BME280;3250;42.694;23.278;2023-04-28T12:03:46;95037.03;;;17.49;32.52
6435;BME280;3250;42.694;23.278;2023-04-28T12:06:16;95030.97;;;17.54;29.43
6435;BME280;3250;42.694;23.278;2023-04-28T12:08:43;95005.50;;;17.36;32.26
6435;BME280;3250;42.694;23.278;2023-04-28T12:11:12;95019.28;;;17.55;31.50
6435;BME280;3250;42.694;23.278;2023-04-28T12:13:38;95028.34;;;17.59;30.02
6435;BME280;3250;42.694;23.278;2023-04-28T12:16:07;95025.03;;;17.68;31.50
6435;BME280;3250;42.694;23.278;2023-04-28T12:18:36;95014.72;;;17.77;31.95
6435;BME280;3250;42.694;23.278;2023-04-28T12:21:03;95012.63;;;17.79;30.12
6435;BME280;3250;42.694;23.278;2023-04-28T12:25:56;95001.78;;;17.86;30.54
6435;BME280;3250;42.694;23.278;2023-04-28T12:28:23;94979.22;;;17.66;29.92
6435;BME280;3250;42.694;23.278;2023-04-28T12:30:49;94961.56;;;17.12;30.46
6435;BME280;3250;42.694;23.278;2023-04-28T12:33:22;95003.44;;;17.43;32.44
6435;BME280;3250;42.694;23.278;2023-04-28T12:35:49;94999.66;;;17.39;30.82
6435;BME280;3250;42.694;23.278;2023-04-28T12:38:14;94997.00;;;17.39;29.34
6435;BME280;3250;42.694;23.278;2023-04-28T12:40:41;94997.97;;;17.55;32.34
6435;BME280;3250;42.694;23.278;2023-04-28T12:43:06;94996.53;;;17.69;33.33
6435;BME280;3250;42.694;23.278;2023-04-28T12:45:32;94988.88;;;17.73;32.43
6435;BME280;3250;42.694;23.278;2023-04-28T12:47:58;94978.25;;;17.78;30.68
6435;BME280;3250;42.694;23.278;2023-04-28T12:50:23;94982.63;;;17.89;30.86
6435;BME280;3250;42.694;23.278;2023-04-28T12:52:49;94987.19;;;17.93;31.53
6435;BME280;3250;42.694;23.278;2023-04-28T12:55:15;94980.59;;;18.01;30.69
6435;BME280;3250;42.694;23.278;2023-04-28T12:57:40;94979.84;;;18.05;29.97
6435;BME280;3250;42.694;23.278;2023-04-28T13:00:07;94966.38;;;17.90;30.83
6435;BME280;3250;42.694;23.278;2023-04-28T13:02:33;94966.69;;;17.94;32.46
6435;BME280;3250;42.694;23.278;2023-04-28T13:04:58;94978.16;;;17.99;30.22
6435;BME280;3250;42.694;23.278;2023-04-28T13:07:23;94968.75;;;17.87;30.87
6435;BME280;3250;42.694;23.278;2023-04-28T13:09:49;94961.31;;;17.89;31.30
6435;BME280;3250;42.694;23.278;2023-04-28T13:12:14;94946.84;;;17.80;31.65
6435;BME280;3250;42.694;23.278;2023-04-28T13:14:40;94957.38;;;17.96;31.93
6435;BME280;3250;42.694;23.278;2023-04-28T13:17:05;94962.75;;;18.01;31.82
6435;BME280;3250;42.694;23.278;2023-04-28T13:19:32;94946.94;;;17.90;31.94
6435;BME280;3250;42.694;23.278;2023-04-28T13:21:58;94943.81;;;17.98;31.07
6435;BME280;3250;42.694;23.278;2023-04-28T13:24:24;94953.78;;;18.13;33.19
6435;BME280;3250;42.694;23.278;2023-04-28T13:26:51;94957.00;;;18.15;32.45
6435;BME280;3250;42.694;23.278;2023-04-28T13:29:16;94960.25;;;18.22;31.43
6435;BME280;3250;42.694;23.278;2023-04-28T13:31:42;94948.47;;;18.18;30.90
6435;BME280;3250;42.694;23.278;2023-04-28T13:34:08;94942.34;;;18.17;31.99
6435;BME280;3250;42.694;23.278;2023-04-28T13:36:40;94950.38;;;18.22;31.43
6435;BME280;3250;42.694;23.278;2023-04-28T13:39:05;94959.44;;;18.21;31.50
6435;BME280;3250;42.694;23.278;2023-04-28T13:41:35;94939.16;;;18.15;31.62
6435;BME280;3250;42.694;23.278;2023-04-28T13:44:00;94941.00;;;18.15;31.46
6435;BME280;3250;42.694;23.278;2023-04-28T13:46:26;94959.19;;;18.23;29.80
6435;BME280;3250;42.694;23.278;2023-04-28T13:48:51;94935.38;;;18.11;29.99
6435;BME280;3250;42.694;23.278;2023-04-28T13:51:17;94939.34;;;18.08;29.38
6435;BME280;3250;42.694;23.278;2023-04-28T13:53:43;94935.88;;;18.08;30.27